Time;durP1;ratioP1;P1;durP2;ratioP2;P2;SDS_P1;SDS_P2;PMS_P1;PMS_P2;Temp;Humidity;BMP_temperature;BMP_pressure;BME280_temperature;BME280_humidity;BME280_pressure;Samples;Min_cycle;Max_cycle;Signal;HPM_P1;HPM_P2
2021/11/03 00:01:20;;;;;;;3.97;3.57;;;8.60;99.90;;;;;;5035287;28;20169;-57
2021/11/03 00:03:47;;;;;;;3.70;3.27;;;8.80;99.90;;;;;;5035191;28;20653;-53
2021/11/03 00:06:21;;;;;;;3.60;3.30;;;8.80;99.90;;;;;;5035205;28;20412;-54
2021/11/03 00:08:48;;;;;;;3.90;3.10;;;8.90;99.90;;;;;;5034911;28;20516;-54
2021/11/03 00:11:14;;;;;;;3.93;3.63;;;9.00;99.90;;;;;;5034845;28;20543;-53
2021/11/03 00:13:40;;;;;;;4.17;3.87;;;8.80;99.90;;;;;;5034590;28;20978;-56
2021/11/03 00:16:06;;;;;;;5.17;4.77;;;8.80;99.90;;;;;;5035108;28;20433;-52
2021/11/03 00:18:32;;;;;;;5.23;4.77;;;8.50;99.90;;;;;;5035465;28;20429;-56
2021/11/03 00:20:59;;;;;;;4.63;4.17;;;8.50;99.90;;;;;;5034933;28;20407;-51
2021/11/03 00:23:25;;;;;;;4.80;4.30;;;8.60;99.90;;;;;;5034905;28;20196;-54
2021/11/03 00:25:51;;;;;;;4.40;4.10;;;8.60;99.90;;;;;;5035174;28;20408;-55
2021/11/03 00:28:19;;;;;;;4.43;4.10;;;8.80;99.90;;;;;;5034519;28;20610;-56
2021/11/03 00:30:47;;;;;;;4.80;4.40;;;8.70;99.90;;;;;;5035053;28;20172;-53
2021/11/03 00:33:14;;;;;;;5.57;4.37;;;8.70;99.90;;;;;;5034655;28;20421;-52
2021/11/03 00:35:40;;;;;;;5.20;4.70;;;8.80;99.90;;;;;;5035027;28;20808;-56
2021/11/03 00:38:06;;;;;;;4.60;4.20;;;8.80;99.90;;;;;;5034891;28;20421;-57
2021/11/03 00:40:32;;;;;;;4.07;3.70;;;8.80;99.90;;;;;;5034360;28;20170;-54
2021/11/03 00:42:58;;;;;;;6.30;5.40;;;8.90;99.90;;;;;;5034384;28;20409;-51
2021/11/03 00:45:24;;;;;;;4.87;4.40;;;8.90;99.90;;;;;;5034831;28;20194;-57
2021/11/03 00:47:50;;;;;;;5.73;5.23;;;8.80;99.90;;;;;;5034471;28;20427;-57
2021/11/03 00:50:17;;;;;;;5.17;4.67;;;8.90;99.90;;;;;;5034318;28;20806;-58
2021/11/03 00:52:43;;;;;;;4.93;4.43;;;9.00;99.90;;;;;;5034030;28;20181;-56
2021/11/03 00:55:09;;;;;;;11.53;5.53;;;9.10;99.90;;;;;;5034614;28;20405;-53
2021/11/03 00:57:35;;;;;;;6.00;5.50;;;9.20;99.90;;;;;;5034129;28;20281;-55
2021/11/03 01:00:03;;;;;;;6.23;5.60;;;9.20;99.90;;;;;;5033755;28;20440;-55
2021/11/03 01:02:29;;;;;;;4.70;4.30;;;9.30;99.90;;;;;;5034336;28;20543;-56
2021/11/03 01:04:55;;;;;;;4.90;4.47;;;9.30;99.90;;;;;;5034694;28;20936;-57
2021/11/03 01:07:21;;;;;;;5.53;4.57;;;9.20;99.90;;;;;;5033873;28;20411;-53
2021/11/03 01:09:46;;;;;;;4.57;3.80;;;9.20;99.90;;;;;;5034282;28;20164;-54
2021/11/03 01:12:12;;;;;;;3.63;3.33;;;9.20;99.90;;;;;;5016311;28;20173;-56
2021/11/03 01:14:38;;;;;;;3.80;3.40;;;9.30;99.90;;;;;;5033807;28;20188;-52
2021/11/03 01:17:05;;;;;;;4.27;3.73;;;9.30;99.90;;;;;;5027014;28;20171;-56
2021/11/03 01:19:30;;;;;;;5.57;4.03;;;9.10;99.90;;;;;;5024811;28;20258;-52
2021/11/03 01:21:57;;;;;;;4.60;3.90;;;9.00;99.90;;;;;;5033575;28;20905;-56
2021/11/03 01:24:22;;;;;;;4.57;4.17;;;8.90;99.90;;;;;;5033886;28;20336;-55
2021/11/03 01:26:48;;;;;;;4.73;4.27;;;8.60;99.90;;;;;;5034077;28;20446;-54
2021/11/03 01:29:13;;;;;;;4.30;3.90;;;8.40;99.90;;;;;;5033208;28;20270;-54
2021/11/03 01:31:39;;;;;;;8.47;4.37;;;8.50;99.90;;;;;;5033418;28;20172;-53
2021/11/03 01:34:05;;;;;;;6.47;4.73;;;8.40;99.90;;;;;;5033480;28;20304;-56
2021/11/03 01:36:31;;;;;;;5.37;4.87;;;8.50;99.90;;;;;;5033639;28;20541;-58
2021/11/03 01:38:57;;;;;;;4.80;4.40;;;8.50;99.90;;;;;;5032545;28;20438;-54
2021/11/03 01:41:22;;;;;;;4.30;3.90;;;8.70;99.90;;;;;;5033325;28;20173;-54
2021/11/03 01:44:09;;;;;;;4.90;4.50;;;8.90;99.90;;;;;;5032022;28;20215;-55
2021/11/03 01:46:49;;;;;;;5.20;4.70;;;9.10;99.90;;;;;;5033105;28;20492;-57
2021/11/03 01:49:15;;;;;;;4.83;4.43;;;9.20;99.90;;;;;;5033154;28;20788;-52
2021/11/03 01:52:07;;;;;;;3.90;3.57;;;9.20;99.90;;;;;;5032756;28;20406;-56
2021/11/03 01:54:40;;;;;;;4.73;4.23;;;9.30;99.90;;;;;;5013584;28;20156;-56
2021/11/03 01:57:10;;;;;;;4.23;3.83;;;9.30;99.90;;;;;;5013295;28;20890;-56
2021/11/03 01:59:41;;;;;;;3.90;3.60;;;9.40;99.90;;;;;;5013147;28;20396;-55
2021/11/03 02:02:07;;;;;;;3.80;3.50;;;9.40;99.90;;;;;;5013600;28;20392;-53
2021/11/03 02:04:34;;;;;;;3.90;3.50;;;9.40;99.90;;;;;;5012068;28;20535;-53
2021/11/03 02:07:04;;;;;;;4.00;3.00;;;9.40;99.90;;;;;;5013185;28;20821;-54
2021/11/03 02:09:30;;;;;;;3.90;3.60;;;9.40;99.90;;;;;;5013151;28;20456;-57
2021/11/03 02:11:55;;;;;;;3.97;3.40;;;9.30;99.90;;;;;;5013331;28;20405;-56
2021/11/03 02:14:21;;;;;;;4.40;3.60;;;9.30;99.90;;;;;;5012909;28;20173;-54
2021/11/03 02:16:52;;;;;;;4.50;4.10;;;9.40;99.90;;;;;;5013037;28;20179;-55
2021/11/03 02:19:24;;;;;;;3.80;3.50;;;9.40;99.90;;;;;;5013078;28;20191;-53
2021/11/03 02:22:13;;;;;;;4.57;4.17;;;9.40;99.90;;;;;;5014694;28;20786;-54
2021/11/03 02:24:50;;;;;;;4.60;4.07;;;9.40;99.90;;;;;;5023719;28;20508;-54
2021/11/03 02:27:17;;;;;;;4.80;4.40;;;9.40;99.90;;;;;;5032676;28;20773;-57
2021/11/03 02:29:42;;;;;;;8.00;3.80;;;9.40;99.90;;;;;;5032395;28;20420;-58
2021/11/03 02:32:30;;;;;;;3.50;3.20;;;9.40;99.90;;;;;;5032737;28;20406;-56
2021/11/03 02:34:56;;;;;;;3.90;3.60;;;9.40;99.90;;;;;;5032954;28;20174;-56
2021/11/03 02:37:27;;;;;;;5.60;3.70;;;9.30;99.90;;;;;;5032734;28;20413;-56
2021/11/03 02:40:26;;;;;;;3.70;3.40;;;9.10;99.90;;;;;;5032733;28;20782;-56
2021/11/03 02:43:20;;;;;;;4.37;3.60;;;9.00;99.90;;;;;;5032685;28;20484;-56
2021/11/03 02:45:53;;;;;;;3.50;3.20;;;8.70;99.90;;;;;;5033164;28;20498;-56
2021/11/03 02:48:21;;;;;;;4.77;4.37;;;8.30;99.90;;;;;;5032968;28;20431;-54
2021/11/03 02:51:09;;;;;;;4.00;3.70;;;8.20;99.90;;;;;;5036235;28;20403;-54
2021/11/03 02:53:49;;;;;;;5.37;3.73;;;8.20;99.90;;;;;;5036707;28;20535;-54
2021/11/03 02:56:20;;;;;;;4.40;4.00;;;8.30;99.90;;;;;;5036710;28;20737;-53
2021/11/03 02:58:46;;;;;;;4.27;3.87;;;8.30;99.90;;;;;;5036356;28;20472;-50
2021/11/03 03:01:35;;;;;;;4.30;3.90;;;8.30;99.90;;;;;;5036712;28;20464;-54
2021/11/03 03:04:03;;;;;;;3.40;3.10;;;8.20;99.90;;;;;;5036757;28;20440;-54
2021/11/03 03:06:31;;;;;;;3.77;3.37;;;8.30;99.90;;;;;;5036321;28;20406;-53
2021/11/03 03:08:58;;;;;;;3.97;3.57;;;8.30;99.90;;;;;;5036383;28;20464;-54
2021/11/03 03:11:25;;;;;;;4.83;3.70;;;8.30;99.90;;;;;;5036426;28;20779;-53
2021/11/03 03:13:52;;;;;;;3.67;3.47;;;8.40;99.90;;;;;;5035859;28;20411;-55
2021/11/03 03:16:19;;;;;;;5.07;4.53;;;8.40;99.90;;;;;;5036463;28;20745;-52
2021/11/03 03:18:45;;;;;;;3.77;3.37;;;8.40;99.90;;;;;;5036390;28;20457;-55
2021/11/03 03:21:14;;;;;;;4.90;3.40;;;8.50;99.90;;;;;;5036212;28;20414;-53
2021/11/03 03:23:41;;;;;;;3.40;3.10;;;8.60;99.90;;;;;;5036090;28;20440;-56
2021/11/03 03:26:08;;;;;;;4.17;3.77;;;8.60;99.90;;;;;;5033531;28;20468;-57
2021/11/03 03:28:34;;;;;;;3.83;3.50;;;8.70;99.90;;;;;;5034964;28;20487;-56
2021/11/03 03:31:00;;;;;;;5.30;3.60;;;8.70;99.90;;;;;;5036074;28;20847;-56
2021/11/03 03:33:26;;;;;;;3.27;2.97;;;8.70;99.90;;;;;;5035733;28;20166;-54
2021/11/03 03:35:51;;;;;;;3.73;3.43;;;8.80;99.90;;;;;;5035706;28;20198;-53
2021/11/03 03:38:17;;;;;;;4.53;3.47;;;8.80;99.90;;;;;;5035415;28;20660;-54
2021/11/03 03:40:43;;;;;;;4.67;4.27;;;8.80;99.90;;;;;;5035810;28;20405;-51
2021/11/03 03:43:09;;;;;;;3.40;3.10;;;8.90;99.90;;;;;;5035368;28;20183;-55
2021/11/03 03:45:35;;;;;;;3.77;3.03;;;9.00;99.90;;;;;;5035461;28;20172;-55
2021/11/03 03:48:01;;;;;;;3.50;3.30;;;9.10;99.90;;;;;;5035558;28;20719;-54
2021/11/03 03:50:26;;;;;;;5.10;3.90;;;9.10;99.90;;;;;;5035435;28;20515;-53
2021/11/03 03:52:52;;;;;;;3.93;3.60;;;9.10;99.90;;;;;;5034183;28;20173;-54
2021/11/03 03:55:18;;;;;;;3.83;3.53;;;9.20;99.90;;;;;;5035987;28;20183;-53
2021/11/03 03:57:43;;;;;;;3.30;3.10;;;9.30;99.90;;;;;;5035890;28;20546;-52
2021/11/03 04:00:15;;;;;;;4.10;3.63;;;9.20;99.90;;;;;;5034936;28;20175;-52
2021/11/03 04:02:41;;;;;;;4.50;3.80;;;9.20;99.90;;;;;;5034822;28;20597;-52
2021/11/03 04:05:07;;;;;;;3.37;3.10;;;9.20;99.90;;;;;;5035014;28;20543;-53
2021/11/03 04:07:33;;;;;;;3.83;3.00;;;9.20;99.90;;;;;;5035194;28;20580;-55
2021/11/03 04:09:59;;;;;;;3.13;2.80;;;9.10;99.90;;;;;;5030946;28;20416;-54
2021/11/03 04:12:24;;;;;;;4.73;3.13;;;9.10;99.90;;;;;;5023835;28;20201;-55
2021/11/03 04:14:50;;;;;;;4.10;3.20;;;9.10;99.90;;;;;;5014804;28;20411;-55
2021/11/03 04:17:16;;;;;;;5.63;4.10;;;9.10;99.90;;;;;;5014952;28;20290;-55
2021/11/03 04:19:41;;;;;;;4.80;3.80;;;9.10;99.90;;;;;;5015135;28;20182;-54
2021/11/03 04:22:07;;;;;;;3.20;2.80;;;9.00;99.90;;;;;;5018307;28;20174;-51
2021/11/03 04:24:34;;;;;;;3.53;3.23;;;8.90;99.90;;;;;;5034663;28;20238;-57
2021/11/03 04:27:00;;;;;;;3.23;2.87;;;8.90;99.90;;;;;;5034678;28;20421;-57
2021/11/03 04:29:26;;;;;;;3.90;3.60;;;9.00;99.90;;;;;;5050390;22;20485;-56
2021/11/03 04:31:52;;;;;;;3.60;3.30;;;9.00;99.90;;;;;;5035079;28;20765;-57
2021/11/03 04:34:18;;;;;;;5.20;3.10;;;8.90;99.90;;;;;;5034992;28;20412;-57
2021/11/03 04:36:44;;;;;;;3.27;2.97;;;8.90;99.90;;;;;;5035130;28;20436;-55
2021/11/03 04:39:11;;;;;;;3.50;3.20;;;9.00;99.90;;;;;;5034805;28;20463;-56
2021/11/03 04:41:37;;;;;;;3.80;3.50;;;9.00;99.90;;;;;;5034977;28;20439;-56
2021/11/03 04:44:03;;;;;;;3.87;3.57;;;9.00;99.90;;;;;;5034463;28;20447;-58
2021/11/03 04:46:28;;;;;;;3.93;3.53;;;9.00;99.90;;;;;;5034944;28;20416;-55
2021/11/03 04:48:54;;;;;;;4.63;4.20;;;9.00;99.90;;;;;;5035185;28;20682;-54
2021/11/03 04:51:20;;;;;;;3.60;3.00;;;9.00;99.90;;;;;;5034698;28;20162;-54
2021/11/03 04:53:46;;;;;;;4.40;3.10;;;8.80;99.90;;;;;;5034984;28;20408;-57
2021/11/03 04:56:13;;;;;;;3.40;3.10;;;8.90;99.90;;;;;;5034727;28;20446;-58
2021/11/03 04:58:40;;;;;;;3.10;2.70;;;8.80;99.90;;;;;;5034354;28;20434;-56
2021/11/03 05:01:05;;;;;;;3.40;2.97;;;8.70;99.90;;;;;;5034812;28;20411;-56
2021/11/03 05:03:31;;;;;;;2.90;2.70;;;8.70;99.90;;;;;;5034646;28;20445;-57
2021/11/03 05:05:58;;;;;;;2.97;2.70;;;8.70;99.90;;;;;;5034542;28;20169;-55
2021/11/03 05:08:23;;;;;;;4.47;3.20;;;8.80;99.90;;;;;;5034342;28;20196;-58
2021/11/03 05:10:49;;;;;;;3.20;2.90;;;8.80;99.90;;;;;;5034557;28;20555;-58
2021/11/03 05:13:15;;;;;;;3.00;2.60;;;8.70;99.90;;;;;;5033926;28;20240;-61
2021/11/03 05:15:41;;;;;;;4.60;3.17;;;8.70;99.90;;;;;;5034803;28;20170;-58
2021/11/03 05:18:07;;;;;;;3.73;2.80;;;8.70;99.90;;;;;;5034266;28;20166;-58
2021/11/03 05:20:32;;;;;;;2.50;2.30;;;8.80;99.90;;;;;;5034486;28;20201;-57
2021/11/03 05:22:58;;;;;;;8.60;2.67;;;8.90;99.90;;;;;;5031036;28;20397;-58
2021/11/03 05:25:26;;;;;;;2.63;2.40;;;9.00;99.90;;;;;;5034123;28;20207;-56
2021/11/03 05:27:52;;;;;;;2.87;2.67;;;9.10;99.90;;;;;;5034123;28;20166;-55
2021/11/03 05:30:23;;;;;;;2.93;2.47;;;9.10;99.90;;;;;;5033631;28;20475;-55
2021/11/03 05:32:49;;;;;;;3.20;2.90;;;9.10;99.90;;;;;;5034156;28;20405;-54
2021/11/03 05:35:15;;;;;;;1.90;1.80;;;9.10;99.90;;;;;;5034101;28;20506;-58
2021/11/03 05:37:41;;;;;;;3.13;2.90;;;9.10;99.90;;;;;;5034419;28;20487;-57
2021/11/03 05:40:12;;;;;;;3.80;3.50;;;9.10;99.90;;;;;;5033703;28;20198;-56
2021/11/03 05:42:38;;;;;;;3.70;3.33;;;9.20;99.90;;;;;;5034137;28;20396;-54
2021/11/03 05:45:04;;;;;;;3.73;3.43;;;9.10;99.90;;;;;;5033525;28;20539;-56
2021/11/03 05:47:30;;;;;;;4.60;4.10;;;9.30;99.90;;;;;;5033893;28;20161;-55
2021/11/03 05:49:57;;;;;;;4.20;3.80;;;9.40;99.90;;;;;;5033831;28;20432;-54
2021/11/03 05:52:24;;;;;;;3.90;3.50;;;9.40;99.90;;;;;;5034100;28;20429;-54
2021/11/03 05:54:49;;;;;;;5.43;4.60;;;9.40;99.90;;;;;;5034171;28;20404;-56
2021/11/03 05:57:25;;;;;;;4.03;3.73;;;9.40;99.90;;;;;;5033648;28;20985;-55
2021/11/03 05:59:52;;;;;;;5.23;4.73;;;9.50;99.90;;;;;;5033528;28;20204;-53
2021/11/03 06:02:18;;;;;;;4.87;4.47;;;9.50;99.90;;;;;;5033834;28;20417;-53
2021/11/03 06:04:44;;;;;;;11.47;10.40;;;9.50;99.90;;;;;;5033925;28;20563;-53
2021/11/03 06:07:11;;;;;;;15.40;13.93;;;9.50;99.90;;;;;;5033382;28;20462;-53
2021/11/03 06:09:37;;;;;;;7.10;6.50;;;9.50;99.90;;;;;;5033744;28;20221;-56
2021/11/03 06:12:03;;;;;;;4.47;4.07;;;9.60;99.90;;;;;;5033663;28;20493;-55
2021/11/03 06:14:28;;;;;;;5.63;4.10;;;9.60;99.90;;;;;;5033565;28;20190;-55
2021/11/03 06:16:54;;;;;;;3.50;3.20;;;9.50;99.90;;;;;;5033624;28;20820;-57
2021/11/03 06:19:20;;;;;;;3.50;2.97;;;9.30;99.90;;;;;;5033257;28;20292;-56
2021/11/03 06:21:45;;;;;;;3.83;3.40;;;9.10;99.90;;;;;;5033312;28;20177;-57
2021/11/03 06:24:11;;;;;;;3.77;3.47;;;9.00;99.90;;;;;;5034323;28;20213;-53
2021/11/03 06:26:37;;;;;;;3.17;2.90;;;8.90;99.90;;;;;;5037582;28;20171;-57
2021/11/03 06:29:02;;;;;;;3.10;2.90;;;8.60;99.90;;;;;;5036993;28;20268;-56
2021/11/03 06:31:28;;;;;;;4.00;3.47;;;8.70;99.90;;;;;;5037560;28;20176;-57
2021/11/03 06:33:54;;;;;;;3.27;2.97;;;8.80;99.90;;;;;;5037598;28;20186;-58
2021/11/03 06:36:21;;;;;;;3.80;3.27;;;8.90;99.90;;;;;;5037465;28;20177;-57
2021/11/03 06:38:47;;;;;;;4.43;4.10;;;8.80;99.90;;;;;;5037329;28;20451;-55
2021/11/03 06:41:14;;;;;;;4.03;3.50;;;8.90;99.90;;;;;;5037252;28;20459;-56
2021/11/03 06:43:40;;;;;;;3.27;2.97;;;9.00;99.90;;;;;;5037433;28;20453;-56
2021/11/03 06:46:06;;;;;;;3.90;3.50;;;9.20;99.90;;;;;;5036999;28;20420;-54
2021/11/03 06:48:32;;;;;;;3.10;2.60;;;9.40;99.90;;;;;;5037372;28;20562;-56
2021/11/03 06:50:58;;;;;;;3.70;2.90;;;9.50;99.90;;;;;;5037100;28;20420;-53
2021/11/03 06:53:25;;;;;;;4.10;3.57;;;9.60;99.90;;;;;;5036185;28;20185;-56
2021/11/03 06:55:52;;;;;;;4.40;3.90;;;9.40;99.90;;;;;;5036992;28;20190;-53
2021/11/03 06:58:19;;;;;;;5.90;2.70;;;9.20;99.90;;;;;;5036919;28;20939;-54
2021/11/03 07:00:47;;;;;;;3.33;2.73;;;9.40;99.90;;;;;;5034766;28;21000;-56
2021/11/03 07:03:13;;;;;;;2.63;2.43;;;9.50;99.90;;;;;;5026423;28;20480;-55
2021/11/03 07:05:43;;;;;;;2.57;2.37;;;9.70;99.90;;;;;;5025342;28;20541;-57
2021/11/03 07:08:09;;;;;;;3.13;2.83;;;9.80;99.90;;;;;;5016810;28;20883;-55
2021/11/03 07:10:40;;;;;;;3.27;2.97;;;9.60;99.90;;;;;;5016908;28;20432;-57
2021/11/03 07:13:06;;;;;;;3.00;2.70;;;9.40;99.90;;;;;;5017109;28;20465;-56
2021/11/03 07:15:33;;;;;;;3.40;3.17;;;9.50;99.90;;;;;;5016631;28;20418;-58
2021/11/03 07:17:59;;;;;;;2.40;2.20;;;9.60;99.90;;;;;;5016607;28;20418;-58
2021/11/03 07:20:26;;;;;;;3.20;2.90;;;9.70;99.90;;;;;;5019259;28;20753;-55
2021/11/03 07:22:51;;;;;;;3.47;2.63;;;9.90;99.90;;;;;;5017315;28;20983;-52
2021/11/03 07:25:20;;;;;;;2.40;2.20;;;10.00;99.90;;;;;;5036147;28;20540;-57
2021/11/03 07:27:48;;;;;;;2.87;2.20;;;10.20;99.90;;;;;;5036214;28;20170;-58
2021/11/03 07:30:15;;;;;;;2.57;2.37;;;10.20;99.90;;;;;;5035976;28;20485;-58
2021/11/03 07:32:40;;;;;;;2.90;2.60;;;10.30;99.90;;;;;;5036212;28;20460;-58
2021/11/03 07:35:07;;;;;;;3.47;2.20;;;10.30;99.90;;;;;;5035644;28;20820;-58
2021/11/03 07:37:33;;;;;;;3.23;2.90;;;10.30;99.90;;;;;;5035374;28;20409;-57
2021/11/03 07:39:58;;;;;;;2.27;2.00;;;10.30;99.90;;;;;;5036450;28;20770;-57
2021/11/03 07:42:24;;;;;;;5.03;3.50;;;9.80;99.90;;;;;;5036126;28;20618;-58
2021/11/03 07:44:49;;;;;;;6.50;5.00;;;9.50;99.90;;;;;;5035826;28;20198;-54
2021/11/03 07:47:16;;;;;;;5.13;4.23;;;9.70;99.90;;;;;;5035533;28;20175;-55
2021/11/03 07:49:42;;;;;;;4.93;4.17;;;9.80;99.90;;;;;;5035771;28;20188;-57
2021/11/03 07:52:07;;;;;;;5.73;3.43;;;10.10;99.90;;;;;;5035149;28;20516;-58
2021/11/03 07:54:33;;;;;;;2.00;1.77;;;10.20;99.90;;;;;;5035793;28;20185;-55
2021/11/03 07:56:59;;;;;;;3.60;2.00;;;10.10;99.90;;;;;;5035820;28;20175;-57
2021/11/03 07:59:25;;;;;;;1.60;1.50;;;10.10;99.90;;;;;;5035347;28;20205;-56
2021/11/03 08:01:51;;;;;;;2.33;1.70;;;10.20;99.90;;;;;;5035709;28;20269;-57
2021/11/03 08:04:18;;;;;;;1.70;1.60;;;10.20;99.90;;;;;;5035388;28;20457;-57
2021/11/03 08:06:44;;;;;;;2.00;1.80;;;10.10;99.90;;;;;;5035439;28;20403;-57
2021/11/03 08:09:10;;;;;;;2.03;1.80;;;10.10;99.90;;;;;;5035627;28;20440;-56
2021/11/03 08:11:48;;;;;;;6.30;2.50;;;10.20;99.90;;;;;;5035586;28;20408;-58
2021/11/03 08:14:16;;;;;;;1.90;1.70;;;10.30;99.90;;;;;;5035366;28;20833;-56
2021/11/03 08:16:57;;;;;;;3.00;1.73;;;10.60;99.90;;;;;;5035130;28;20412;-58
2021/11/03 08:19:32;;;;;;;2.90;1.60;;;10.80;99.90;;;;;;5035159;28;20422;-58
2021/11/03 08:21:58;;;;;;;2.13;1.70;;;10.90;99.90;;;;;;5035097;28;20928;-58
2021/11/03 08:24:24;;;;;;;3.67;3.27;;;11.00;99.90;;;;;;5034964;28;20839;-57
2021/11/03 08:26:52;;;;;;;5.87;3.60;;;11.00;99.90;;;;;;5035153;28;20410;-57
2021/11/03 08:29:19;;;;;;;3.83;3.43;;;11.00;99.90;;;;;;5034505;28;20226;-56
2021/11/03 08:31:45;;;;;;;4.43;3.33;;;11.20;99.90;;;;;;5034884;28;20805;-58
2021/11/03 08:34:11;;;;;;;4.47;3.00;;;11.20;99.90;;;;;;5034711;28;20464;-55
2021/11/03 08:36:37;;;;;;;4.53;3.07;;;11.00;99.90;;;;;;5034975;28;20921;-57
2021/11/03 08:39:06;;;;;;;3.90;3.00;;;11.10;99.90;;;;;;5034589;28;20425;-58
2021/11/03 08:41:31;;;;;;;3.27;3.00;;;11.20;99.90;;;;;;5034964;28;20406;-54
2021/11/03 08:43:57;;;;;;;3.30;2.77;;;11.30;99.90;;;;;;5034412;28;20474;-57
2021/11/03 08:46:23;;;;;;;4.73;3.30;;;11.30;99.90;;;;;;5034826;28;20195;-56
2021/11/03 08:48:52;;;;;;;4.80;3.93;;;11.40;99.90;;;;;;5034443;28;20418;-56
2021/11/03 08:51:19;;;;;;;4.50;3.53;;;11.60;99.90;;;;;;5034439;28;20406;-59
2021/11/03 08:53:44;;;;;;;3.73;3.33;;;11.50;99.90;;;;;;5034312;28;20441;-58
2021/11/03 08:56:10;;;;;;;5.87;3.87;;;11.40;99.90;;;;;;5034374;28;20888;-57
2021/11/03 08:58:35;;;;;;;4.60;3.43;;;11.30;99.90;;;;;;5034622;28;20243;-58
2021/11/03 09:01:01;;;;;;;3.60;3.10;;;11.40;99.90;;;;;;5034098;28;20176;-57
2021/11/03 09:03:27;;;;;;;3.73;3.10;;;11.30;99.90;;;;;;5034262;28;20178;-57
2021/11/03 09:05:53;;;;;;;3.23;3.03;;;11.30;99.90;;;;;;5034391;28;20433;-57
2021/11/03 09:08:20;;;;;;;3.63;3.20;;;11.10;99.90;;;;;;5034447;28;20214;-54
2021/11/03 09:10:52;;;;;;;3.40;3.10;;;11.20;99.90;;;;;;5034476;28;20414;-58
2021/11/03 09:13:22;;;;;;;3.63;3.03;;;11.30;99.90;;;;;;5034305;28;20734;-57
2021/11/03 09:15:49;;;;;;;3.80;2.97;;;11.50;99.90;;;;;;5033715;28;20413;-57
2021/11/03 09:18:15;;;;;;;4.17;3.70;;;11.60;99.90;;;;;;5034275;28;20432;-58
2021/11/03 09:20:42;;;;;;;3.67;3.37;;;11.80;99.90;;;;;;5031172;28;20778;-58
2021/11/03 09:23:09;;;;;;;4.13;3.23;;;12.00;99.90;;;;;;5033976;28;20444;-58
2021/11/03 09:25:35;;;;;;;5.13;2.90;;;12.20;99.90;;;;;;5034029;28;20557;-57
2021/11/03 09:28:01;;;;;;;3.57;3.10;;;12.20;99.90;;;;;;5034532;28;20478;-57
2021/11/03 09:30:28;;;;;;;3.73;3.37;;;12.40;99.90;;;;;;5034187;28;20414;-57
2021/11/03 09:32:56;;;;;;;6.83;6.10;;;12.40;99.90;;;;;;5034072;28;20401;-57
2021/11/03 09:35:26;;;;;;;7.63;6.43;;;12.10;99.90;;;;;;5033621;28;20417;-56
2021/11/03 09:37:52;;;;;;;4.43;4.03;;;12.20;99.90;;;;;;5033623;28;20406;-57
2021/11/03 09:40:25;;;;;;;6.50;5.90;;;12.10;99.90;;;;;;5033505;28;20832;-58
2021/11/03 09:42:53;;;;;;;4.17;3.77;;;12.20;99.90;;;;;;5033443;28;20417;-58
2021/11/03 09:45:26;;;;;;;3.83;3.53;;;12.20;99.90;;;;;;5033263;28;20454;-58
2021/11/03 09:48:07;;;;;;;3.00;2.60;;;12.50;99.90;;;;;;5033955;28;20386;-59
2021/11/03 09:50:37;;;;;;;3.73;2.70;;;12.50;99.90;;;;;;5033780;28;20409;-59
2021/11/03 09:53:23;;;;;;;2.43;2.23;;;12.90;99.90;;;;;;5033578;28;20437;-57
2021/11/03 09:55:49;;;;;;;1.83;1.70;;;13.10;99.90;;;;;;5030493;28;20953;-57
2021/11/03 09:58:31;;;;;;;2.37;2.00;;;13.00;99.90;;;;;;5024328;28;20434;-59
2021/11/03 10:01:00;;;;;;;2.60;2.00;;;13.00;99.90;;;;;;5033054;28;20492;-57
2021/11/03 10:03:44;;;;;;;3.27;2.53;;;12.90;99.90;;;;;;5033355;28;20417;-54
2021/11/03 10:06:25;;;;;;;4.57;2.60;;;12.90;99.90;;;;;;5033914;28;20794;-58
2021/11/03 10:08:53;;;;;;;2.40;2.07;;;12.50;99.90;;;;;;5033662;28;20459;-57
2021/11/03 10:11:22;;;;;;;2.20;2.00;;;12.50;99.90;;;;;;5032932;28;20411;-57
2021/11/03 10:13:50;;;;;;;4.00;1.90;;;12.70;99.90;;;;;;5033268;28;20412;-56
2021/11/03 10:16:16;;;;;;;3.70;2.20;;;12.70;99.90;;;;;;5033235;28;20445;-58
2021/11/03 10:18:54;;;;;;;2.00;1.80;;;12.80;99.90;;;;;;5033515;28;20946;-58
2021/11/03 10:21:30;;;;;;;3.53;2.40;;;12.80;99.90;;;;;;5033222;28;20626;-58
2021/11/03 10:24:11;;;;;;;3.20;2.17;;;12.90;99.90;;;;;;5033031;28;20434;-58
2021/11/03 10:27:01;;;;;;;4.63;2.97;;;12.90;99.90;;;;;;5032045;28;20781;-57
2021/11/03 10:29:48;;;;;;;2.17;2.00;;;12.90;99.90;;;;;;5048055;23;20482;-58
2021/11/03 10:32:38;;;;;;;2.90;2.60;;;12.80;99.90;;;;;;5032529;28;20486;-58
2021/11/03 10:35:32;;;;;;;2.60;2.40;;;12.80;99.90;;;;;;5033287;28;20394;-54
2021/11/03 10:38:13;;;;;;;4.23;2.40;;;12.80;99.90;;;;;;5023439;28;20414;-56
2021/11/03 10:40:44;;;;;;;4.50;2.07;;;12.70;99.90;;;;;;5032753;28;21048;-57
2021/11/03 10:43:42;;;;;;;2.60;1.60;;;12.70;99.90;;;;;;5032646;28;20962;-58
2021/11/03 10:46:21;;;;;;;2.53;2.33;;;12.90;99.90;;;;;;5032150;28;20500;-57
2021/11/03 10:48:49;;;;;;;1.97;1.57;;;13.20;99.90;;;;;;5032799;28;20410;-58
2021/11/03 10:51:33;;;;;;;2.63;2.43;;;13.00;99.90;;;;;;5032662;28;20416;-55
2021/11/03 10:54:17;;;;;;;4.07;2.30;;;12.90;99.90;;;;;;5032831;28;20764;-56
2021/11/03 10:56:56;;;;;;;2.83;2.33;;;13.00;99.90;;;;;;5032355;28;20534;-56
2021/11/03 10:59:30;;;;;;;4.80;2.20;;;12.90;99.90;;;;;;5032360;28;20424;-56
2021/11/03 11:02:17;;;;;;;3.40;2.50;;;13.00;99.90;;;;;;5032538;28;20421;-56
2021/11/03 11:04:43;;;;;;;4.50;2.47;;;12.90;99.90;;;;;;5032361;28;20474;-56
2021/11/03 11:07:39;;;;;;;3.37;2.73;;;12.90;99.90;;;;;;5032866;28;20522;-58
2021/11/03 11:10:19;;;;;;;2.93;2.20;;;12.90;99.90;;;;;;5031661;28;20457;-56
2021/11/03 11:12:48;;;;;;;3.40;2.40;;;12.70;99.90;;;;;;5036063;28;20433;-57
2021/11/03 11:15:14;;;;;;;2.50;2.30;;;12.70;99.90;;;;;;5035891;28;20494;-58
2021/11/03 11:17:54;;;;;;;2.83;2.57;;;12.90;99.90;;;;;;5036858;28;20418;-58
2021/11/03 11:20:39;;;;;;;2.70;2.50;;;13.00;99.90;;;;;;5033542;28;20436;-56
2021/11/03 11:23:31;;;;;;;2.60;2.40;;;13.10;99.90;;;;;;5036585;28;20394;-58
2021/11/03 11:26:15;;;;;;;2.83;2.63;;;12.90;99.90;;;;;;5034647;28;20394;-53
2021/11/03 11:29:01;;;;;;;3.20;2.90;;;12.90;99.90;;;;;;5035877;28;20753;-57
2021/11/03 11:31:47;;;;;;;3.20;2.50;;;12.80;99.90;;;;;;5036125;28;20752;-56
2021/11/03 11:34:19;;;;;;;3.57;3.23;;;12.70;99.90;;;;;;5036041;28;20466;-56
2021/11/03 11:37:14;;;;;;;5.23;2.57;;;12.80;99.90;;;;;;5035901;28;20378;-56
2021/11/03 11:40:08;;;;;;;3.50;2.33;;;12.70;99.90;;;;;;5035040;28;20438;-52
2021/11/03 11:42:40;;;;;;;3.13;2.70;;;12.50;99.90;;;;;;5009305;28;20488;-53
2021/11/03 11:45:20;;;;;;;5.17;3.00;;;12.70;99.90;;;;;;5035707;28;20533;-55
2021/11/03 11:47:50;;;;;;;3.30;2.30;;;12.80;99.90;;;;;;5035560;28;20436;-54
2021/11/03 11:50:47;;;;;;;2.87;2.10;;;13.00;99.90;;;;;;5035370;28;20414;-56
2021/11/03 11:53:38;;;;;;;6.30;2.53;;;12.90;99.90;;;;;;5035466;28;20538;-53
2021/11/03 11:56:09;;;;;;;2.57;2.37;;;12.70;99.90;;;;;;5035452;28;20498;-58
2021/11/03 11:58:39;;;;;;;2.27;1.43;;;12.70;99.90;;;;;;5035236;28;20395;-56
2021/11/03 12:01:26;;;;;;;2.30;1.67;;;12.70;99.90;;;;;;5034956;28;20433;-58
2021/11/03 12:04:00;;;;;;;2.47;1.80;;;12.50;99.90;;;;;;5035286;28;20437;-53
2021/11/03 12:06:59;;;;;;;3.13;1.87;;;12.60;99.90;;;;;;5035327;28;20415;-56
2021/11/03 12:09:58;;;;;;;3.90;1.97;;;12.60;99.90;;;;;;5034368;28;20441;-58
2021/11/03 12:12:24;;;;;;;2.27;1.50;;;12.70;99.90;;;;;;5035022;28;20375;-55
2021/11/03 12:14:55;;;;;;;2.33;2.13;;;12.80;99.90;;;;;;5034873;28;20414;-59
2021/11/03 12:17:36;;;;;;;3.57;1.83;;;12.80;99.90;;;;;;5035187;28;20406;-57
2021/11/03 12:20:24;;;;;;;2.33;1.60;;;12.90;99.90;;;;;;5034940;28;20873;-58
2021/11/03 12:22:51;;;;;;;3.23;1.93;;;12.80;99.90;;;;;;5032737;28;20414;-56
2021/11/03 12:25:17;;;;;;;4.00;2.07;;;12.80;99.90;;;;;;5034665;28;20552;-58
2021/11/03 12:27:47;;;;;;;2.17;1.67;;;12.90;99.90;;;;;;5034600;28;20506;-57
2021/11/03 12:30:15;;;;;;;2.57;2.00;;;13.00;99.90;;;;;;5034407;28;20225;-57
2021/11/03 12:32:43;;;;;;;3.33;2.20;;;13.00;99.90;;;;;;5034758;28;20411;-56
2021/11/03 12:35:18;;;;;;;2.17;1.63;;;13.30;99.90;;;;;;5034863;28;20497;-59
2021/11/03 12:37:46;;;;;;;2.80;1.97;;;13.20;99.90;;;;;;5034841;28;20406;-57
2021/11/03 12:40:39;;;;;;;1.53;1.30;;;13.30;99.90;;;;;;5034577;28;20441;-59
2021/11/03 12:43:20;;;;;;;2.60;1.83;;;13.30;99.90;;;;;;5032309;28;20986;-55
2021/11/03 12:46:08;;;;;;;1.93;1.37;;;12.90;99.90;;;;;;5034019;28;20434;-56
2021/11/03 12:48:41;;;;;;;2.67;2.03;;;12.70;99.90;;;;;;5029776;28;20433;-58
2021/11/03 12:51:25;;;;;;;1.30;1.20;;;12.80;99.90;;;;;;5023147;28;20403;-59
2021/11/03 12:54:12;;;;;;;1.67;1.53;;;12.90;99.90;;;;;;5015237;28;20383;-57
2021/11/03 12:56:40;;;;;;;3.30;1.60;;;12.80;99.90;;;;;;5014643;28;20400;-59
2021/11/03 12:59:19;;;;;;;2.33;1.80;;;13.00;99.90;;;;;;5014271;28;20430;-57
2021/11/03 13:01:49;;;;;;;3.83;2.00;;;13.00;99.90;;;;;;5014709;28;20403;-58
2021/11/03 13:04:36;;;;;;;1.83;1.73;;;12.80;99.90;;;;;;5013013;28;20451;-58
2021/11/03 13:07:17;;;;;;;2.00;1.83;;;12.70;99.90;;;;;;5014722;28;20386;-54
2021/11/03 13:10:23;;;;;;;1.90;1.60;;;12.70;99.90;;;;;;5022718;28;20458;-56